sensor_id;sensor_type;location;lat;lon;timestamp;P1;durP1;ratioP1;P2;durP2;ratioP2
64252;SDS011;50592;52.958;-7.470;2024-03-06T01:31:16;27.15;;;5.40;;
64252;SDS011;50592;52.958;-7.470;2024-03-06T01:43:28;36.65;;;7.82;;
64252;SDS011;50592;52.958;-7.470;2024-03-06T01:47:00;33.50;;;5.75;;
64252;SDS011;50592;52.958;-7.470;2024-03-06T01:53:40;21.13;;;3.33;;
64252;SDS011;50592;52.958;-7.470;2024-03-06T01:56:09;27.55;;;3.33;;
64252;SDS011;50592;52.958;-7.470;2024-03-06T02:04:21;15.07;;;4.70;;
64252;SDS011;50592;52.958;-7.470;2024-03-06T02:13:56;97.10;;;5.07;;
64252;SDS011;50592;52.958;-7.470;2024-03-06T02:21:20;17.92;;;4.07;;
64252;SDS011;50592;52.958;-7.470;2024-03-06T02:23:47;18.92;;;5.38;;
64252;SDS011;50592;52.958;-7.470;2024-03-06T02:29:46;13.27;;;3.83;;
64252;SDS011;50592;52.958;-7.470;2024-03-06T02:32:20;18.52;;;4.35;;
64252;SDS011;50592;52.958;-7.470;2024-03-06T02:36:22;17.17;;;3.38;;
64252;SDS011;50592;52.958;-7.470;2024-03-06T02:42:22;20.48;;;3.70;;
64252;SDS011;50592;52.958;-7.470;2024-03-06T02:45:40;14.57;;;3.20;;
64252;SDS011;50592;52.958;-7.470;2024-03-06T02:48:06;14.68;;;3.80;;
64252;SDS011;50592;52.958;-7.470;2024-03-06T02:56:39;14.68;;;4.60;;
64252;SDS011;50592;52.958;-7.470;2024-03-06T03:00:27;11.38;;;3.65;;
64252;SDS011;50592;52.958;-7.470;2024-03-06T03:02:53;11.65;;;3.88;;
64252;SDS011;50592;52.958;-7.470;2024-03-06T03:05:19;10.48;;;4.47;;
64252;SDS011;50592;52.958;-7.470;2024-03-06T03:12:01;11.88;;;3.40;;
64252;SDS011;50592;52.958;-7.470;2024-03-06T03:14:38;11.27;;;3.80;;
64252;SDS011;50592;52.958;-7.470;2024-03-06T03:24:48;7.65;;;2.63;;
64252;SDS011;50592;52.958;-7.470;2024-03-06T03:28:21;13.52;;;2.90;;
64252;SDS011;50592;52.958;-7.470;2024-03-06T03:35:36;18.40;;;3.22;;
64252;SDS011;50592;52.958;-7.470;2024-03-06T03:41:26;19.48;;;3.22;;
64252;SDS011;50592;52.958;-7.470;2024-03-06T03:43:56;12.23;;;3.33;;
64252;SDS011;50592;52.958;-7.470;2024-03-06T03:46:26;15.95;;;3.70;;
64252;SDS011;50592;52.958;-7.470;2024-03-06T03:49:15;11.35;;;2.70;;
64252;SDS011;50592;52.958;-7.470;2024-03-06T04:01:45;19.27;;;3.80;;
64252;SDS011;50592;52.958;-7.470;2024-03-06T04:23:27;21.05;;;3.30;;
64252;SDS011;50592;52.958;-7.470;2024-03-06T04:29:23;28.38;;;3.33;;
64252;SDS011;50592;52.958;-7.470;2024-03-06T04:31:49;21.98;;;3.70;;
64252;SDS011;50592;52.958;-7.470;2024-03-06T04:34:24;37.05;;;5.35;;
64252;SDS011;50592;52.958;-7.470;2024-03-06T04:37:46;15.18;;;1.95;;
64252;SDS011;50592;52.958;-7.470;2024-03-06T04:50:56;22.27;;;3.70;;
64252;SDS011;50592;52.958;-7.470;2024-03-06T05:00:42;18.38;;;2.60;;
64252;SDS011;50592;52.958;-7.470;2024-03-06T05:08:45;15.95;;;2.42;;
64252;SDS011;50592;52.958;-7.470;2024-03-06T05:11:12;22.35;;;3.13;;
64252;SDS011;50592;52.958;-7.470;2024-03-06T05:13:41;25.58;;;2.95;;
64252;SDS011;50592;52.958;-7.470;2024-03-06T05:16:10;17.83;;;2.38;;
64252;SDS011;50592;52.958;-7.470;2024-03-06T05:25:06;16.55;;;2.20;;
64252;SDS011;50592;52.958;-7.470;2024-03-06T05:27:32;19.73;;;2.55;;
64252;SDS011;50592;52.958;-7.470;2024-03-06T05:33:24;19.10;;;2.58;;
64252;SDS011;50592;52.958;-7.470;2024-03-06T05:36:01;21.92;;;2.08;;
64252;SDS011;50592;52.958;-7.470;2024-03-06T05:38:27;17.52;;;2.53;;
64252;SDS011;50592;52.958;-7.470;2024-03-06T05:40:53;19.42;;;2.65;;
64252;SDS011;50592;52.958;-7.470;2024-03-06T05:43:27;25.58;;;2.42;;
64252;SDS011;50592;52.958;-7.470;2024-03-06T05:45:53;25.20;;;2.55;;
64252;SDS011;50592;52.958;-7.470;2024-03-06T05:48:22;18.98;;;2.47;;
64252;SDS011;50592;52.958;-7.470;2024-03-06T05:50:49;23.13;;;2.72;;
64252;SDS011;50592;52.958;-7.470;2024-03-06T05:56:22;23.23;;;2.53;;
64252;SDS011;50592;52.958;-7.470;2024-03-06T05:58:57;16.77;;;2.33;;
64252;SDS011;50592;52.958;-7.470;2024-03-06T06:01:24;25.17;;;3.28;;
64252;SDS011;50592;52.958;-7.470;2024-03-06T06:07:16;22.60;;;2.63;;
64252;SDS011;50592;52.958;-7.470;2024-03-06T06:09:45;17.70;;;2.47;;
64252;SDS011;50592;52.958;-7.470;2024-03-06T06:12:15;21.08;;;2.85;;
64252;SDS011;50592;52.958;-7.470;2024-03-06T06:15:30;20.08;;;2.45;;
64252;SDS011;50592;52.958;-7.470;2024-03-06T06:18:07;21.38;;;2.72;;
64252;SDS011;50592;52.958;-7.470;2024-03-06T06:20:34;32.03;;;3.70;;
64252;SDS011;50592;52.958;-7.470;2024-03-06T06:26:19;24.15;;;3.03;;
64252;SDS011;50592;52.958;-7.470;2024-03-06T06:28:47;21.52;;;3.38;;
64252;SDS011;50592;52.958;-7.470;2024-03-06T06:32:02;19.45;;;3.10;;
64252;SDS011;50592;52.958;-7.470;2024-03-06T06:40:40;21.95;;;2.20;;
64252;SDS011;50592;52.958;-7.470;2024-03-06T06:43:39;24.40;;;2.88;;
64252;SDS011;50592;52.958;-7.470;2024-03-06T06:46:12;14.90;;;3.22;;
64252;SDS011;50592;52.958;-7.470;2024-03-06T06:49:07;17.08;;;2.63;;
64252;SDS011;50592;52.958;-7.470;2024-03-06T06:54:47;17.63;;;2.97;;
64252;SDS011;50592;52.958;-7.470;2024-03-06T06:57:16;19.42;;;2.85;;
64252;SDS011;50592;52.958;-7.470;2024-03-06T06:59:44;24.92;;;2.30;;
64252;SDS011;50592;52.958;-7.470;2024-03-06T07:02:11;20.13;;;2.95;;
64252;SDS011;50592;52.958;-7.470;2024-03-06T07:04:55;14.38;;;2.28;;
64252;SDS011;50592;52.958;-7.470;2024-03-06T07:07:30;18.80;;;2.55;;
64252;SDS011;50592;52.958;-7.470;2024-03-06T07:12:53;24.40;;;3.03;;
64252;SDS011;50592;52.958;-7.470;2024-03-06T07:15:36;16.85;;;2.53;;
64252;SDS011;50592;52.958;-7.470;2024-03-06T07:18:12;21.40;;;2.50;;
64252;SDS011;50592;52.958;-7.470;2024-03-06T07:20:46;17.25;;;2.60;;
64252;SDS011;50592;52.958;-7.470;2024-03-06T07:23:34;18.95;;;2.97;;
64252;SDS011;50592;52.958;-7.470;2024-03-06T07:26:10;16.92;;;2.60;;
64252;SDS011;50592;52.958;-7.470;2024-03-06T07:28:45;15.90;;;2.45;;
64252;SDS011;50592;52.958;-7.470;2024-03-06T07:31:11;21.42;;;3.10;;
64252;SDS011;50592;52.958;-7.470;2024-03-06T07:33:49;28.85;;;3.30;;
64252;SDS011;50592;52.958;-7.470;2024-03-06T07:39:03;14.53;;;2.40;;
64252;SDS011;50592;52.958;-7.470;2024-03-06T07:41:32;13.30;;;2.28;;
64252;SDS011;50592;52.958;-7.470;2024-03-06T07:47:07;34.00;;;3.80;;
64252;SDS011;50592;52.958;-7.470;2024-03-06T07:50:17;11.63;;;2.05;;
64252;SDS011;50592;52.958;-7.470;2024-03-06T07:53:56;19.83;;;2.55;;
64252;SDS011;50592;52.958;-7.470;2024-03-06T08:00:05;24.83;;;3.30;;
64252;SDS011;50592;52.958;-7.470;2024-03-06T08:03:40;22.70;;;3.45;;
64252;SDS011;50592;52.958;-7.470;2024-03-06T08:06:20;20.10;;;2.72;;
64252;SDS011;50592;52.958;-7.470;2024-03-06T08:08:53;23.83;;;2.50;;
64252;SDS011;50592;52.958;-7.470;2024-03-06T08:11:18;19.88;;;3.13;;
64252;SDS011;50592;52.958;-7.470;2024-03-06T08:18:30;20.15;;;2.78;;
64252;SDS011;50592;52.958;-7.470;2024-03-06T08:21:03;18.38;;;3.33;;
64252;SDS011;50592;52.958;-7.470;2024-03-06T08:34:25;24.55;;;3.35;;
64252;SDS011;50592;52.958;-7.470;2024-03-06T08:40:19;20.60;;;2.90;;
64252;SDS011;50592;52.958;-7.470;2024-03-06T08:42:49;32.42;;;3.97;;
64252;SDS011;50592;52.958;-7.470;2024-03-06T08:45:26;25.88;;;3.20;;
64252;SDS011;50592;52.958;-7.470;2024-03-06T08:48:13;23.38;;;3.28;;
64252;SDS011;50592;52.958;-7.470;2024-03-06T08:50:42;37.00;;;4.05;;
64252;SDS011;50592;52.958;-7.470;2024-03-06T08:53:26;21.98;;;3.58;;
64252;SDS011;50592;52.958;-7.470;2024-03-06T09:10:07;15.90;;;2.63;;
64252;SDS011;50592;52.958;-7.470;2024-03-06T09:16:22;19.75;;;2.72;;
64252;SDS011;50592;52.958;-7.470;2024-03-06T09:19:25;15.70;;;2.88;;
64252;SDS011;50592;52.958;-7.470;2024-03-06T09:22:01;17.85;;;2.90;;
64252;SDS011;50592;52.958;-7.470;2024-03-06T09:33:24;16.27;;;2.33;;
64252;SDS011;50592;52.958;-7.470;2024-03-06T09:40:24;21.05;;;2.80;;
64252;SDS011;50592;52.958;-7.470;2024-03-06T09:42:59;18.98;;;3.00;;
64252;SDS011;50592;52.958;-7.470;2024-03-06T09:45:25;14.73;;;2.22;;
64252;SDS011;50592;52.958;-7.470;2024-03-06T09:47:51;23.10;;;2.83;;
64252;SDS011;50592;52.958;-7.470;2024-03-06T09:50:30;16.17;;;2.30;;
64252;SDS011;50592;52.958;-7.470;2024-03-06T09:53:26;12.05;;;1.95;;
64252;SDS011;50592;52.958;-7.470;2024-03-06T09:56:52;15.90;;;1.75;;
64252;SDS011;50592;52.958;-7.470;2024-03-06T09:59:12;14.80;;;1.90;;
64252;SDS011;50592;52.958;-7.470;2024-03-06T10:10:50;15.95;;;2.17;;
64252;SDS011;50592;52.958;-7.470;2024-03-06T10:13:41;21.63;;;3.60;;
64252;SDS011;50592;52.958;-7.470;2024-03-06T10:16:25;14.57;;;2.00;;
64252;SDS011;50592;52.958;-7.470;2024-03-06T10:19:50;18.85;;;2.78;;
64252;SDS011;50592;52.958;-7.470;2024-03-06T10:22:30;10.57;;;2.05;;
64252;SDS011;50592;52.958;-7.470;2024-03-06T10:28:32;10.25;;;2.17;;
64252;SDS011;50592;52.958;-7.470;2024-03-06T10:31:07;12.35;;;2.72;;
64252;SDS011;50592;52.958;-7.470;2024-03-06T10:34:10;12.73;;;2.13;;
64252;SDS011;50592;52.958;-7.470;2024-03-06T10:36:35;10.88;;;1.80;;
64252;SDS011;50592;52.958;-7.470;2024-03-06T10:39:05;12.38;;;1.88;;
64252;SDS011;50592;52.958;-7.470;2024-03-06T10:41:40;9.63;;;1.88;;
64252;SDS011;50592;52.958;-7.470;2024-03-06T10:44:31;11.55;;;1.92;;
64252;SDS011;50592;52.958;-7.470;2024-03-06T10:47:05;8.25;;;1.63;;
64252;SDS011;50592;52.958;-7.470;2024-03-06T10:49:35;13.00;;;1.70;;
64252;SDS011;50592;52.958;-7.470;2024-03-06T10:52:58;9.98;;;1.67;;
64252;SDS011;50592;52.958;-7.470;2024-03-06T10:55:31;10.48;;;1.60;;
64252;SDS011;50592;52.958;-7.470;2024-03-06T11:02:09;14.55;;;2.28;;
64252;SDS011;50592;52.958;-7.470;2024-03-06T11:04:36;14.90;;;2.95;;
64252;SDS011;50592;52.958;-7.470;2024-03-06T11:07:16;17.17;;;2.40;;
64252;SDS011;50592;52.958;-7.470;2024-03-06T11:09:47;15.45;;;2.85;;
64252;SDS011;50592;52.958;-7.470;2024-03-06T11:15:40;22.08;;;2.55;;
64252;SDS011;50592;52.958;-7.470;2024-03-06T11:27:06;21.48;;;3.22;;
64252;SDS011;50592;52.958;-7.470;2024-03-06T11:30:10;25.85;;;3.67;;
64252;SDS011;50592;52.958;-7.470;2024-03-06T11:33:00;23.88;;;3.33;;
64252;SDS011;50592;52.958;-7.470;2024-03-06T11:39:14;29.02;;;3.72;;
64252;SDS011;50592;52.958;-7.470;2024-03-06T11:45:12;22.58;;;3.97;;
64252;SDS011;50592;52.958;-7.470;2024-03-06T11:48:01;25.75;;;5.47;;
64252;SDS011;50592;52.958;-7.470;2024-03-06T11:50:42;26.70;;;4.13;;
64252;SDS011;50592;52.958;-7.470;2024-03-06T11:53:14;28.52;;;3.58;;
64252;SDS011;50592;52.958;-7.470;2024-03-06T11:55:48;24.88;;;3.67;;
64252;SDS011;50592;52.958;-7.470;2024-03-06T11:58:24;25.92;;;4.07;;
64252;SDS011;50592;52.958;-7.470;2024-03-06T12:00:51;33.65;;;4.55;;
64252;SDS011;50592;52.958;-7.470;2024-03-06T12:03:22;25.75;;;3.90;;
64252;SDS011;50592;52.958;-7.470;2024-03-06T12:06:11;28.70;;;4.40;;
64252;SDS011;50592;52.958;-7.470;2024-03-06T12:11:40;21.70;;;3.40;;
64252;SDS011;50592;52.958;-7.470;2024-03-06T12:14:23;32.83;;;4.55;;
64252;SDS011;50592;52.958;-7.470;2024-03-06T12:17:30;21.85;;;3.47;;
64252;SDS011;50592;52.958;-7.470;2024-03-06T12:26:23;31.55;;;4.25;;
64252;SDS011;50592;52.958;-7.470;2024-03-06T12:29:07;27.25;;;3.53;;
64252;SDS011;50592;52.958;-7.470;2024-03-06T12:31:46;31.98;;;4.43;;
64252;SDS011;50592;52.958;-7.470;2024-03-06T12:34:19;35.17;;;4.53;;
64252;SDS011;50592;52.958;-7.470;2024-03-06T12:36:50;23.75;;;3.78;;
64252;SDS011;50592;52.958;-7.470;2024-03-06T12:39:19;38.03;;;5.55;;
64252;SDS011;50592;52.958;-7.470;2024-03-06T12:42:02;23.80;;;4.10;;
64252;SDS011;50592;52.958;-7.470;2024-03-06T12:44:35;28.95;;;4.65;;
64252;SDS011;50592;52.958;-7.470;2024-03-06T12:47:10;28.08;;;4.47;;
64252;SDS011;50592;52.958;-7.470;2024-03-06T12:49:36;24.45;;;3.65;;
64252;SDS011;50592;52.958;-7.470;2024-03-06T12:52:08;30.65;;;4.45;;
64252;SDS011;50592;52.958;-7.470;2024-03-06T12:55:04;23.48;;;3.58;;
64252;SDS011;50592;52.958;-7.470;2024-03-06T12:57:43;20.50;;;2.97;;
64252;SDS011;50592;52.958;-7.470;2024-03-06T13:00:21;27.98;;;3.65;;
64252;SDS011;50592;52.958;-7.470;2024-03-06T13:02:54;24.13;;;3.50;;
64252;SDS011;50592;52.958;-7.470;2024-03-06T13:08:56;22.40;;;3.10;;
64252;SDS011;50592;52.958;-7.470;2024-03-06T13:12:09;23.48;;;3.90;;
64252;SDS011;50592;52.958;-7.470;2024-03-06T13:14:35;21.73;;;3.78;;
64252;SDS011;50592;52.958;-7.470;2024-03-06T13:17:10;34.28;;;4.97;;
64252;SDS011;50592;52.958;-7.470;2024-03-06T13:19:39;28.70;;;4.53;;
64252;SDS011;50592;52.958;-7.470;2024-03-06T13:22:51;24.40;;;3.20;;
64252;SDS011;50592;52.958;-7.470;2024-03-06T13:25:24;28.35;;;3.75;;
64252;SDS011;50592;52.958;-7.470;2024-03-06T13:27:51;22.92;;;3.17;;
64252;SDS011;50592;52.958;-7.470;2024-03-06T13:30:37;20.30;;;3.55;;
64252;SDS011;50592;52.958;-7.470;2024-03-06T13:33:31;27.17;;;3.88;;
64252;SDS011;50592;52.958;-7.470;2024-03-06T13:39:58;28.95;;;3.85;;
64252;SDS011;50592;52.958;-7.470;2024-03-06T13:48:37;28.83;;;3.72;;
64252;SDS011;50592;52.958;-7.470;2024-03-06T13:51:09;23.23;;;3.45;;
64252;SDS011;50592;52.958;-7.470;2024-03-06T13:53:35;25.90;;;3.65;;
64252;SDS011;50592;52.958;-7.470;2024-03-06T13:56:32;27.20;;;4.30;;
64252;SDS011;50592;52.958;-7.470;2024-03-06T13:59:07;23.52;;;3.08;;
64252;SDS011;50592;52.958;-7.470;2024-03-06T14:01:54;23.92;;;4.55;;
64252;SDS011;50592;52.958;-7.470;2024-03-06T14:09:04;26.55;;;3.47;;
64252;SDS011;50592;52.958;-7.470;2024-03-06T15:36:18;19.08;;;2.95;;
64252;SDS011;50592;52.958;-7.470;2024-03-06T16:56:18;25.73;;;3.42;;
64252;SDS011;50592;52.958;-7.470;2024-03-06T17:02:10;16.15;;;2.47;;
64252;SDS011;50592;52.958;-7.470;2024-03-06T17:05:50;14.20;;;2.10;;
64252;SDS011;50592;52.958;-7.470;2024-03-06T17:08:39;18.60;;;2.25;;
64252;SDS011;50592;52.958;-7.470;2024-03-06T17:11:10;16.25;;;3.03;;
64252;SDS011;50592;52.958;-7.470;2024-03-06T17:17:46;14.52;;;2.20;;
64252;SDS011;50592;52.958;-7.470;2024-03-06T17:20:51;16.33;;;2.05;;
64252;SDS011;50592;52.958;-7.470;2024-03-06T17:26:58;12.82;;;1.92;;
64252;SDS011;50592;52.958;-7.470;2024-03-06T17:29:39;12.70;;;2.33;;
64252;SDS011;50592;52.958;-7.470;2024-03-06T17:32:45;14.70;;;2.10;;
64252;SDS011;50592;52.958;-7.470;2024-03-06T17:35:23;12.85;;;1.85;;
64252;SDS011;50592;52.958;-7.470;2024-03-06T17:37:59;13.48;;;1.60;;
64252;SDS011;50592;52.958;-7.470;2024-03-06T17:40:31;18.10;;;1.88;;
64252;SDS011;50592;52.958;-7.470;2024-03-06T17:46:11;7.03;;;1.27;;
64252;SDS011;50592;52.958;-7.470;2024-03-06T17:48:47;8.43;;;1.40;;
64252;SDS011;50592;52.958;-7.470;2024-03-06T17:51:15;9.55;;;1.63;;
64252;SDS011;50592;52.958;-7.470;2024-03-06T17:53:43;7.60;;;1.63;;
64252;SDS011;50592;52.958;-7.470;2024-03-06T17:56:14;15.13;;;1.83;;
64252;SDS011;50592;52.958;-7.470;2024-03-06T17:58:46;8.25;;;1.60;;
64252;SDS011;50592;52.958;-7.470;2024-03-06T18:01:15;11.07;;;2.20;;
64252;SDS011;50592;52.958;-7.470;2024-03-06T18:03:48;12.48;;;2.00;;
64252;SDS011;50592;52.958;-7.470;2024-03-06T18:06:18;10.70;;;1.85;;
64252;SDS011;50592;52.958;-7.470;2024-03-06T18:08:52;9.00;;;1.67;;
64252;SDS011;50592;52.958;-7.470;2024-03-06T18:11:41;7.30;;;1.70;;
64252;SDS011;50592;52.958;-7.470;2024-03-06T18:14:15;7.13;;;1.52;;
64252;SDS011;50592;52.958;-7.470;2024-03-06T18:16:59;9.18;;;1.55;;
64252;SDS011;50592;52.958;-7.470;2024-03-06T18:22:10;10.38;;;2.15;;
64252;SDS011;50592;52.958;-7.470;2024-03-06T18:24:36;13.88;;;1.80;;
64252;SDS011;50592;52.958;-7.470;2024-03-06T18:27:11;10.70;;;1.80;;
64252;SDS011;50592;52.958;-7.470;2024-03-06T18:33:00;12.90;;;1.58;;
64252;SDS011;50592;52.958;-7.470;2024-03-06T18:39:14;9.52;;;1.75;;
64252;SDS011;50592;52.958;-7.470;2024-03-06T18:42:32;11.32;;;1.63;;
64252;SDS011;50592;52.958;-7.470;2024-03-06T18:45:05;10.68;;;1.88;;
64252;SDS011;50592;52.958;-7.470;2024-03-06T18:48:06;18.27;;;2.17;;
64252;SDS011;50592;52.958;-7.470;2024-03-06T18:50:49;17.90;;;2.47;;
64252;SDS011;50592;52.958;-7.470;2024-03-06T18:56:40;18.88;;;3.05;;
64252;SDS011;50592;52.958;-7.470;2024-03-06T18:59:15;17.25;;;3.03;;
64252;SDS011;50592;52.958;-7.470;2024-03-06T19:02:08;17.27;;;2.33;;
64252;SDS011;50592;52.958;-7.470;2024-03-06T19:05:29;16.35;;;2.47;;
64252;SDS011;50592;52.958;-7.470;2024-03-06T19:07:56;23.45;;;3.05;;
64252;SDS011;50592;52.958;-7.470;2024-03-06T19:10:25;13.20;;;1.90;;
64252;SDS011;50592;52.958;-7.470;2024-03-06T19:13:09;18.15;;;2.75;;
64252;SDS011;50592;52.958;-7.470;2024-03-06T19:18:44;19.63;;;2.22;;
64252;SDS011;50592;52.958;-7.470;2024-03-06T19:22:14;19.95;;;3.05;;
64252;SDS011;50592;52.958;-7.470;2024-03-06T19:25:15;18.00;;;2.60;;
64252;SDS011;50592;52.958;-7.470;2024-03-06T19:27:49;11.90;;;2.03;;
64252;SDS011;50592;52.958;-7.470;2024-03-06T19:33:27;22.33;;;2.80;;
64252;SDS011;50592;52.958;-7.470;2024-03-06T19:36:09;16.30;;;2.42;;
64252;SDS011;50592;52.958;-7.470;2024-03-06T19:39:08;21.55;;;2.83;;
64252;SDS011;50592;52.958;-7.470;2024-03-06T19:45:18;19.33;;;3.17;;
64252;SDS011;50592;52.958;-7.470;2024-03-06T19:47:47;12.98;;;2.17;;
64252;SDS011;50592;52.958;-7.470;2024-03-06T19:50:13;17.75;;;3.33;;
64252;SDS011;50592;52.958;-7.470;2024-03-06T19:56:11;20.73;;;2.75;;
64252;SDS011;50592;52.958;-7.470;2024-03-06T20:00:03;17.42;;;2.90;;
64252;SDS011;50592;52.958;-7.470;2024-03-06T20:05:56;22.27;;;3.70;;
64252;SDS011;50592;52.958;-7.470;2024-03-06T22:15:37;18.60;;;4.68;;
64252;SDS011;50592;52.958;-7.470;2024-03-06T23:11:33;11.27;;;2.10;;
